Time;durP1;ratioP1;P1;durP2;ratioP2;P2;SDS_P1;SDS_P2;PMS_P1;PMS_P2;Temp;Humidity;BMP_temperature;BMP_pressure;BME280_temperature;BME280_humidity;BME280_pressure;Samples;Min_cycle;Max_cycle;Signal;HPM_P1;HPM_P2
2023/06/13 00:00:33;;;;;;;9.90;7.18;;;16.50;85.30;;;;;;5076950;28;20033;-53
2023/06/13 00:03:00;;;;;;;8.88;6.38;;;16.50;85.30;;;;;;5077183;28;20077;-51
2023/06/13 00:05:26;;;;;;;6.75;5.97;;;16.60;84.90;;;;;;5077107;28;20013;-52
2023/06/13 00:07:52;;;;;;;8.85;6.25;;;16.60;84.40;;;;;;5076982;28;20023;-53
2023/06/13 00:10:18;;;;;;;8.73;6.68;;;16.50;84.40;;;;;;5077090;28;20072;-51
2023/06/13 00:12:44;;;;;;;8.73;6.72;;;16.60;84.40;;;;;;5076830;28;20056;-53
2023/06/13 00:15:11;;;;;;;7.50;6.10;;;16.60;84.60;;;;;;5077277;28;20009;-49
2023/06/13 00:17:38;;;;;;;8.63;6.25;;;16.60;84.50;;;;;;5080973;28;20013;-54
2023/06/13 00:20:06;;;;;;;8.73;6.65;;;16.60;83.90;;;;;;5081081;28;20013;-53
2023/06/13 00:22:32;;;;;;;7.50;5.03;;;16.60;83.70;;;;;;5080765;28;20025;-52
2023/06/13 00:24:58;;;;;;;8.32;6.18;;;16.60;83.50;;;;;;5080855;28;20027;-55
2023/06/13 00:27:23;;;;;;;8.85;5.63;;;16.60;83.00;;;;;;5080634;28;20037;-51
2023/06/13 00:29:49;;;;;;;7.47;5.70;;;16.70;83.20;;;;;;5080668;28;20005;-52
2023/06/13 00:32:15;;;;;;;6.63;5.80;;;16.60;83.00;;;;;;5080072;28;20052;-51
2023/06/13 00:34:41;;;;;;;8.77;6.00;;;16.60;83.10;;;;;;5080543;28;20013;-53
2023/06/13 00:37:10;;;;;;;7.63;5.40;;;16.60;83.40;;;;;;5080583;28;20025;-52
2023/06/13 00:39:42;;;;;;;8.30;5.85;;;16.60;83.20;;;;;;5080385;28;20016;-53
2023/06/13 00:42:08;;;;;;;6.30;5.70;;;16.70;83.00;;;;;;5080577;28;20037;-51
2023/06/13 00:44:34;;;;;;;7.85;5.85;;;16.60;82.80;;;;;;5080518;28;20039;-54
2023/06/13 00:47:02;;;;;;;12.90;6.05;;;16.70;82.90;;;;;;5079997;28;20021;-53
2023/06/13 00:49:28;;;;;;;10.45;6.38;;;16.70;82.60;;;;;;5075958;28;20013;-51
2023/06/13 00:51:57;;;;;;;7.72;5.82;;;16.70;82.90;;;;;;5080276;28;20017;-51
2023/06/13 00:54:23;;;;;;;6.63;5.63;;;16.70;82.80;;;;;;5080389;28;20105;-49
2023/06/13 00:56:49;;;;;;;9.88;5.60;;;16.80;82.80;;;;;;5079643;28;20016;-52
2023/06/13 00:59:17;;;;;;;6.38;5.38;;;16.80;82.50;;;;;;5080315;28;20067;-54
2023/06/13 01:01:43;;;;;;;7.25;5.47;;;16.80;82.20;;;;;;5080227;28;20009;-52
2023/06/13 01:04:09;;;;;;;8.82;5.55;;;16.70;81.80;;;;;;5079948;28;20028;-53
2023/06/13 01:06:40;;;;;;;8.40;5.50;;;16.80;81.80;;;;;;5079353;28;20017;-54
2023/06/13 01:09:06;;;;;;;7.75;5.25;;;16.80;81.70;;;;;;5080229;28;20021;-52
2023/06/13 01:11:47;;;;;;;6.90;5.20;;;16.70;81.40;;;;;;5079891;28;20073;-51
2023/06/13 01:14:24;;;;;;;9.60;5.80;;;16.70;81.10;;;;;;5079702;28;20053;-51
2023/06/13 01:16:56;;;;;;;6.32;5.30;;;16.70;81.40;;;;;;5079820;28;20018;-52
2023/06/13 01:19:31;;;;;;;7.07;5.28;;;16.70;81.80;;;;;;5079854;28;20072;-50
2023/06/13 01:21:58;;;;;;;8.25;4.85;;;16.70;81.60;;;;;;5078941;28;20010;-50
2023/06/13 01:24:41;;;;;;;6.95;5.05;;;16.60;81.20;;;;;;5079703;28;20339;-51
2023/06/13 01:27:10;;;;;;;5.55;4.90;;;16.60;80.90;;;;;;5078291;28;20013;-53
2023/06/13 01:29:37;;;;;;;7.90;5.05;;;16.60;80.70;;;;;;5079590;28;20013;-51
2023/06/13 01:32:05;;;;;;;8.60;5.30;;;16.60;80.70;;;;;;5079445;28;20025;-50
2023/06/13 01:34:32;;;;;;;6.28;5.40;;;16.60;80.80;;;;;;5079477;28;20017;-51
2023/06/13 01:36:58;;;;;;;7.07;5.50;;;16.60;81.10;;;;;;5079461;28;20021;-50
2023/06/13 01:39:23;;;;;;;8.20;5.30;;;16.60;80.80;;;;;;5078731;28;20017;-51
2023/06/13 01:41:49;;;;;;;11.07;5.35;;;16.60;80.70;;;;;;5079351;28;20012;-52
2023/06/13 01:44:19;;;;;;;6.45;4.85;;;16.60;80.80;;;;;;5079341;28;20051;-53
2023/06/13 01:46:57;;;;;;;11.93;5.55;;;16.60;80.80;;;;;;5079269;28;20040;-51
2023/06/13 01:49:35;;;;;;;6.60;5.03;;;16.70;80.70;;;;;;5079384;28;20020;-50
2023/06/13 01:52:25;;;;;;;6.20;4.90;;;16.70;80.40;;;;;;5079226;28;20027;-51
2023/06/13 01:54:57;;;;;;;5.47;4.65;;;16.60;81.40;;;;;;5079208;28;20009;-51
2023/06/13 01:57:30;;;;;;;10.50;5.63;;;16.60;80.70;;;;;;5078349;28;20013;-51
2023/06/13 01:59:56;;;;;;;7.32;5.13;;;16.60;80.60;;;;;;5078958;28;20025;-51
2023/06/13 02:02:23;;;;;;;5.90;4.38;;;16.60;80.70;;;;;;5078964;28;20015;-49
2023/06/13 02:04:49;;;;;;;5.70;4.70;;;16.60;80.60;;;;;;5078981;28;20040;-52
2023/06/13 02:07:15;;;;;;;6.18;4.95;;;16.60;80.30;;;;;;5079003;28;20083;-52
2023/06/13 02:09:41;;;;;;;6.05;4.60;;;16.60;79.90;;;;;;5079014;28;20016;-50
2023/06/13 02:12:07;;;;;;;5.97;4.90;;;16.60;80.10;;;;;;5078468;28;20036;-54
2023/06/13 02:14:33;;;;;;;8.60;5.05;;;16.60;80.10;;;;;;5077913;28;20072;-51
2023/06/13 02:16:59;;;;;;;9.23;5.25;;;16.60;80.10;;;;;;5078687;28;20020;-52
2023/06/13 02:19:26;;;;;;;5.43;4.53;;;16.60;80.00;;;;;;5078571;28;20066;-51
2023/06/13 02:21:52;;;;;;;5.00;4.50;;;16.60;80.10;;;;;;5078589;28;20023;-53
2023/06/13 02:24:18;;;;;;;6.15;4.80;;;16.60;80.30;;;;;;5078689;28;20017;-53
2023/06/13 02:26:45;;;;;;;7.78;5.07;;;16.60;80.10;;;;;;5078600;28;20005;-54
2023/06/13 02:29:11;;;;;;;6.72;4.85;;;16.60;79.80;;;;;;5078349;28;20027;-51
2023/06/13 02:31:38;;;;;;;6.45;5.03;;;16.60;79.90;;;;;;5077790;28;20009;-53
2023/06/13 02:34:04;;;;;;;9.00;5.30;;;16.60;79.90;;;;;;5078289;28;20024;-50
2023/06/13 02:36:30;;;;;;;7.88;5.35;;;16.60;80.10;;;;;;5078242;28;20013;-50
2023/06/13 02:38:55;;;;;;;7.47;5.00;;;16.70;79.90;;;;;;5077869;28;20017;-51
2023/06/13 02:41:21;;;;;;;5.63;4.70;;;16.70;79.70;;;;;;5078306;28;20060;-53
2023/06/13 02:43:47;;;;;;;5.63;4.47;;;16.70;79.80;;;;;;5078187;28;20031;-51
2023/06/13 02:46:13;;;;;;;6.95;5.03;;;16.70;80.20;;;;;;5078071;28;20013;-53
2023/06/13 02:48:38;;;;;;;7.75;4.82;;;16.70;80.30;;;;;;5077232;28;20156;-50
2023/06/13 02:51:07;;;;;;;5.85;4.50;;;16.70;80.10;;;;;;5078176;28;20017;-53
2023/06/13 02:53:33;;;;;;;5.25;4.15;;;16.70;80.10;;;;;;5077993;28;20056;-54
2023/06/13 02:55:59;;;;;;;7.38;4.50;;;16.70;80.10;;;;;;5078023;28;20020;-51
2023/06/13 02:58:24;;;;;;;5.57;4.50;;;16.80;79.80;;;;;;5077936;28;20044;-54
2023/06/13 03:00:50;;;;;;;5.38;4.45;;;16.80;79.60;;;;;;5077947;28;20020;-53
2023/06/13 03:03:18;;;;;;;7.32;4.70;;;16.70;79.20;;;;;;5077902;28;20033;-52
2023/06/13 03:05:47;;;;;;;6.70;4.55;;;16.70;79.80;;;;;;5076982;28;20051;-55
2023/06/13 03:08:18;;;;;;;5.15;4.47;;;16.70;79.70;;;;;;5077836;28;20029;-52
2023/06/13 03:10:48;;;;;;;6.65;4.38;;;16.70;79.70;;;;;;5077667;28;20222;-52
2023/06/13 03:13:15;;;;;;;6.68;4.82;;;16.70;79.60;;;;;;5077509;28;20052;-53
2023/06/13 03:15:43;;;;;;;5.32;4.53;;;16.70;79.50;;;;;;5077644;28;20007;-52
2023/06/13 03:18:09;;;;;;;5.57;4.68;;;16.70;79.50;;;;;;5077601;28;20037;-54
2023/06/13 03:20:37;;;;;;;6.05;4.70;;;16.70;79.50;;;;;;5077364;28;20020;-53
2023/06/13 03:23:03;;;;;;;5.95;4.40;;;16.70;79.50;;;;;;5077612;28;20017;-50
2023/06/13 03:25:29;;;;;;;6.32;4.57;;;16.70;79.70;;;;;;5077271;28;20017;-52
2023/06/13 03:27:55;;;;;;;5.78;4.40;;;16.70;79.50;;;;;;5077393;28;20021;-51
2023/06/13 03:30:21;;;;;;;6.80;4.22;;;16.70;79.70;;;;;;5077393;28;20021;-52
2023/06/13 03:32:46;;;;;;;5.18;4.25;;;16.70;79.50;;;;;;5077311;28;20032;-53
2023/06/13 03:35:12;;;;;;;5.55;4.18;;;16.70;79.40;;;;;;5077427;28;20064;-51
2023/06/13 03:37:38;;;;;;;5.13;4.50;;;16.70;79.40;;;;;;5076807;28;20020;-51
2023/06/13 03:40:04;;;;;;;5.30;4.47;;;16.70;79.40;;;;;;5057340;28;20006;-51
2023/06/13 03:42:30;;;;;;;5.78;4.18;;;16.70;79.60;;;;;;5057388;28;20029;-50
2023/06/13 03:44:55;;;;;;;5.53;4.15;;;16.70;79.50;;;;;;5057369;28;20041;-50
2023/06/13 03:47:21;;;;;;;5.38;4.43;;;16.70;79.50;;;;;;5057258;28;20017;-54
2023/06/13 03:49:47;;;;;;;5.00;4.28;;;16.70;78.90;;;;;;5057582;28;20017;-50
2023/06/13 03:52:12;;;;;;;5.18;4.05;;;16.70;79.10;;;;;;5061234;28;20034;-53
2023/06/13 03:54:38;;;;;;;6.30;4.10;;;16.70;79.20;;;;;;5061603;28;20080;-52
2023/06/13 03:57:04;;;;;;;5.63;4.38;;;16.70;79.40;;;;;;5081311;28;20017;-53
2023/06/13 03:59:30;;;;;;;4.38;3.72;;;16.70;79.70;;;;;;5081239;28;20037;-50
2023/06/13 04:01:55;;;;;;;4.50;3.83;;;16.70;79.90;;;;;;5081270;28;20016;-51
2023/06/13 04:04:21;;;;;;;5.25;4.03;;;16.70;79.50;;;;;;5080325;28;20017;-54
2023/06/13 04:06:49;;;;;;;4.93;3.97;;;16.70;79.40;;;;;;5080226;28;20017;-53
2023/06/13 04:09:14;;;;;;;4.35;3.90;;;16.70;79.40;;;;;;5081062;28;20033;-50
2023/06/13 04:11:40;;;;;;;6.05;4.35;;;16.70;79.40;;;;;;5080142;28;20040;-52
2023/06/13 04:14:06;;;;;;;5.35;3.80;;;16.70;79.80;;;;;;5080828;28;20059;-52
2023/06/13 04:16:31;;;;;;;4.95;4.28;;;16.70;79.50;;;;;;5080957;28;20013;-53
2023/06/13 04:19:01;;;;;;;5.10;4.03;;;16.70;79.30;;;;;;5080778;28;20040;-54
2023/06/13 04:21:27;;;;;;;5.75;4.07;;;16.60;79.60;;;;;;5081045;28;20064;-50
2023/06/13 04:23:53;;;;;;;6.40;4.10;;;16.70;79.70;;;;;;5080779;28;20017;-51
2023/06/13 04:26:20;;;;;;;4.90;3.92;;;16.70;79.40;;;;;;5080621;28;20061;-51
2023/06/13 04:28:46;;;;;;;5.65;4.07;;;16.70;79.80;;;;;;5079603;28;20024;-53
2023/06/13 04:31:12;;;;;;;6.20;4.35;;;16.70;80.00;;;;;;5080413;28;20029;-51
2023/06/13 04:33:44;;;;;;;5.55;4.40;;;16.60;80.00;;;;;;5080200;28;20033;-52
2023/06/13 04:36:13;;;;;;;5.63;4.25;;;16.60;80.00;;;;;;5080189;28;20029;-50
2023/06/13 04:38:39;;;;;;;6.57;4.00;;;16.60;79.90;;;;;;5079869;28;20029;-53
2023/06/13 04:41:10;;;;;;;4.95;4.00;;;16.60;80.10;;;;;;5080340;28;20044;-54
2023/06/13 04:43:41;;;;;;;5.10;3.88;;;16.60;80.30;;;;;;5079991;28;20016;-50
2023/06/13 04:46:10;;;;;;;4.45;3.97;;;16.50;80.10;;;;;;5079050;28;20021;-51
2023/06/13 04:48:35;;;;;;;9.00;4.60;;;16.50;80.40;;;;;;5079697;28;20020;-52
2023/06/13 04:51:02;;;;;;;5.88;4.22;;;16.60;80.90;;;;;;5079993;28;20048;-51
2023/06/13 04:53:29;;;;;;;5.65;4.45;;;16.50;80.90;;;;;;5079857;28;20110;-53
2023/06/13 04:55:55;;;;;;;5.25;4.20;;;16.50;80.90;;;;;;5080189;28;20025;-50
2023/06/13 04:58:23;;;;;;;4.68;4.07;;;16.50;80.50;;;;;;5080250;28;20051;-50
2023/06/13 05:00:53;;;;;;;5.40;4.32;;;16.50;81.00;;;;;;5079726;28;20031;-48
2023/06/13 05:03:21;;;;;;;5.53;4.38;;;16.50;81.20;;;;;;5079388;28;20013;-48
2023/06/13 05:05:48;;;;;;;5.63;4.53;;;16.60;81.40;;;;;;5080062;28;20040;-49
2023/06/13 05:08:19;;;;;;;5.68;4.30;;;16.60;81.30;;;;;;5080051;28;20017;-51
2023/06/13 05:10:45;;;;;;;5.97;4.72;;;16.60;81.30;;;;;;5080056;28;20056;-48
2023/06/13 05:13:11;;;;;;;5.35;4.25;;;16.60;81.80;;;;;;5079736;28;20025;-49
2023/06/13 05:15:38;;;;;;;5.15;4.18;;;16.60;81.80;;;;;;5079954;28;20036;-51
2023/06/13 05:18:07;;;;;;;4.65;4.25;;;16.60;82.10;;;;;;5079860;28;20583;-49
2023/06/13 05:20:33;;;;;;;5.32;4.00;;;16.60;82.00;;;;;;5078799;28;20033;-49
2023/06/13 05:23:02;;;;;;;5.85;4.10;;;16.70;82.20;;;;;;5079843;28;20073;-48
2023/06/13 05:25:30;;;;;;;6.60;4.45;;;16.70;82.00;;;;;;5079760;28;20009;-48
2023/06/13 05:27:56;;;;;;;7.10;4.38;;;16.70;81.90;;;;;;5079464;28;20031;-48
2023/06/13 05:30:22;;;;;;;5.53;4.60;;;16.70;81.80;;;;;;5079412;28;20009;-49
2023/06/13 05:32:47;;;;;;;5.35;4.55;;;16.70;81.90;;;;;;5079405;28;20253;-48
2023/06/13 05:35:13;;;;;;;4.65;4.07;;;16.70;82.30;;;;;;5078832;28;20067;-49
2023/06/13 05:37:39;;;;;;;6.07;4.22;;;16.70;82.20;;;;;;5078541;28;20016;-51
2023/06/13 05:40:11;;;;;;;5.20;4.35;;;16.70;82.50;;;;;;5078522;28;20027;-48
2023/06/13 05:42:37;;;;;;;4.50;3.90;;;16.80;82.40;;;;;;5078695;28;20005;-49
2023/06/13 05:45:04;;;;;;;7.82;4.53;;;16.80;82.40;;;;;;5078750;28;20017;-50
2023/06/13 05:47:29;;;;;;;5.30;4.22;;;16.80;82.20;;;;;;5078499;28;20036;-48
2023/06/13 05:49:55;;;;;;;6.07;4.53;;;16.80;82.90;;;;;;5077712;28;20344;-52
2023/06/13 05:52:21;;;;;;;6.68;4.43;;;16.90;83.30;;;;;;5077250;28;20037;-51
2023/06/13 05:54:47;;;;;;;6.68;4.10;;;16.80;83.10;;;;;;5076515;28;20036;-48
2023/06/13 05:57:13;;;;;;;7.15;4.40;;;16.90;83.30;;;;;;5078592;28;20012;-51
2023/06/13 05:59:38;;;;;;;5.10;4.25;;;16.90;82.90;;;;;;5077179;28;20040;-50
2023/06/13 06:02:04;;;;;;;4.78;4.00;;;16.80;83.30;;;;;;5076590;28;20025;-50
2023/06/13 06:04:30;;;;;;;5.28;4.43;;;16.80;83.40;;;;;;5077013;28;20009;-48
2023/06/13 06:06:55;;;;;;;7.30;4.53;;;16.90;83.70;;;;;;5077830;28;20099;-49
2023/06/13 06:09:21;;;;;;;6.93;4.13;;;16.80;83.40;;;;;;5078234;28;20014;-49
2023/06/13 06:11:47;;;;;;;7.13;4.47;;;16.80;83.60;;;;;;5068315;28;20032;-47
2023/06/13 06:14:12;;;;;;;6.10;4.43;;;16.80;83.40;;;;;;5076555;28;20052;-50
2023/06/13 06:16:38;;;;;;;4.70;4.25;;;16.80;83.20;;;;;;5078196;28;20028;-48
2023/06/13 06:19:04;;;;;;;8.27;4.57;;;16.80;83.20;;;;;;5078065;28;20040;-48
2023/06/13 06:21:29;;;;;;;6.72;4.55;;;16.80;83.20;;;;;;5078057;28;20042;-49
2023/06/13 06:23:55;;;;;;;6.22;4.50;;;16.90;83.50;;;;;;5078236;28;20044;-50
2023/06/13 06:26:22;;;;;;;6.85;5.00;;;16.90;83.80;;;;;;5078194;28;20017;-50
2023/06/13 06:28:47;;;;;;;6.03;4.30;;;16.90;83.30;;;;;;5076963;28;20020;-51
2023/06/13 06:31:13;;;;;;;5.60;4.65;;;16.90;82.80;;;;;;5077823;28;20021;-49
2023/06/13 06:33:39;;;;;;;6.25;4.55;;;17.00;82.80;;;;;;5058407;28;20036;-51
2023/06/13 06:36:04;;;;;;;6.05;4.38;;;17.00;82.90;;;;;;5058020;28;20022;-50
2023/06/13 06:38:30;;;;;;;6.93;4.63;;;17.00;82.80;;;;;;5057890;28;20037;-48
2023/06/13 06:40:56;;;;;;;6.68;4.47;;;17.00;83.50;;;;;;5075960;28;20021;-50
2023/06/13 06:43:21;;;;;;;5.55;4.95;;;17.00;82.80;;;;;;5076607;28;20069;-49
2023/06/13 06:45:47;;;;;;;5.68;4.47;;;17.10;83.00;;;;;;5072724;28;20039;-48
2023/06/13 06:48:13;;;;;;;6.50;4.82;;;17.10;83.00;;;;;;5074270;28;20039;-50
2023/06/13 06:50:38;;;;;;;5.35;4.45;;;17.20;83.00;;;;;;5075398;28;20032;-52
2023/06/13 06:53:04;;;;;;;5.80;4.78;;;17.20;82.70;;;;;;5075127;28;20033;-50
2023/06/13 06:55:30;;;;;;;5.18;4.68;;;17.30;82.40;;;;;;5073286;28;20017;-48
2023/06/13 06:57:55;;;;;;;5.72;4.18;;;17.30;81.90;;;;;;5075064;28;20017;-50
2023/06/13 07:00:22;;;;;;;6.32;4.68;;;17.40;81.80;;;;;;5061031;28;20039;-50
2023/06/13 07:02:48;;;;;;;5.28;4.28;;;17.40;81.60;;;;;;5061590;28;20041;-49
2023/06/13 07:05:15;;;;;;;6.80;4.50;;;17.40;81.90;;;;;;5058727;28;20029;-50
2023/06/13 07:07:42;;;;;;;6.72;5.00;;;17.40;81.90;;;;;;5059090;28;20016;-50
2023/06/13 07:10:09;;;;;;;5.20;4.22;;;17.50;81.90;;;;;;5059039;28;20043;-48
2023/06/13 07:12:36;;;;;;;7.38;4.50;;;17.60;81.70;;;;;;5066236;28;20072;-49
2023/06/13 07:15:02;;;;;;;8.15;4.88;;;17.60;81.80;;;;;;5065347;28;20036;-51
2023/06/13 07:17:30;;;;;;;5.45;4.32;;;17.70;81.60;;;;;;5061232;28;20080;-50
2023/06/13 07:19:55;;;;;;;5.15;4.65;;;17.80;81.20;;;;;;5061175;28;20563;-48
2023/06/13 07:22:21;;;;;;;6.97;4.72;;;17.90;80.90;;;;;;5066980;28;20128;-48
2023/06/13 07:24:47;;;;;;;6.28;4.70;;;18.10;80.40;;;;;;5058484;28;20028;-48
2023/06/13 07:27:12;;;;;;;6.00;4.93;;;18.20;79.70;;;;;;5066865;28;20029;-49
2023/06/13 07:29:38;;;;;;;5.88;4.72;;;18.20;79.40;;;;;;5067918;28;20031;-50
2023/06/13 07:32:04;;;;;;;5.78;4.35;;;18.30;79.30;;;;;;5057547;28;20154;-50
2023/06/13 07:34:30;;;;;;;5.88;4.60;;;18.30;79.30;;;;;;5058334;28;20042;-51
2023/06/13 07:36:56;;;;;;;5.75;4.78;;;18.30;78.70;;;;;;5058858;28;20029;-49
2023/06/13 07:39:22;;;;;;;6.07;4.45;;;18.40;78.90;;;;;;5060530;28;20021;-50
2023/06/13 07:41:49;;;;;;;6.35;5.00;;;18.40;78.70;;;;;;5049865;28;20059;-48
2023/06/13 07:44:15;;;;;;;7.32;5.38;;;18.40;78.40;;;;;;5050957;28;20071;-50
2023/06/13 07:46:42;;;;;;;6.50;4.75;;;18.50;78.70;;;;;;5021175;28;20410;-50
2023/06/13 07:49:07;;;;;;;6.13;4.75;;;18.50;78.40;;;;;;5011904;28;20049;-50
2023/06/13 07:51:33;;;;;;;7.38;5.30;;;18.50;78.30;;;;;;5037765;28;20040;-49
2023/06/13 07:53:59;;;;;;;5.63;4.70;;;18.60;78.50;;;;;;5034310;28;20033;-51
2023/06/13 07:56:25;;;;;;;11.70;5.00;;;18.70;78.80;;;;;;5034441;28;20033;-49
2023/06/13 07:58:51;;;;;;;6.80;5.03;;;18.70;78.60;;;;;;5035442;28;20072;-49
2023/06/13 08:01:17;;;;;;;4.75;4.13;;;18.80;78.60;;;;;;5037486;28;20060;-52
2023/06/13 08:03:46;;;;;;;7.68;4.88;;;18.80;78.40;;;;;;5039282;28;20082;-48
2023/06/13 08:06:11;;;;;;;8.90;4.97;;;18.90;77.90;;;;;;5036378;28;20038;-49
2023/06/13 08:08:37;;;;;;;6.25;4.80;;;18.90;77.40;;;;;;5031358;28;20029;-48
2023/06/13 08:11:03;;;;;;;8.07;4.82;;;18.90;77.60;;;;;;5033242;28;20029;-52
2023/06/13 08:13:29;;;;;;;6.25;5.50;;;19.00;77.80;;;;;;5038769;28;20057;-51
2023/06/13 08:15:54;;;;;;;6.85;4.85;;;19.00;77.60;;;;;;5019223;28;20776;-51
2023/06/13 08:18:20;;;;;;;6.90;4.97;;;19.00;77.20;;;;;;5027626;28;20030;-48
2023/06/13 08:20:48;;;;;;;6.22;4.90;;;18.90;77.00;;;;;;5032175;28;20461;-51
2023/06/13 08:23:14;;;;;;;5.63;4.45;;;18.90;77.10;;;;;;5022700;28;20029;-54
2023/06/13 08:25:41;;;;;;;6.15;5.05;;;18.90;77.60;;;;;;5024689;28;20040;-53
2023/06/13 08:28:07;;;;;;;6.95;4.57;;;19.00;77.70;;;;;;5032838;28;20038;-52
2023/06/13 08:30:34;;;;;;;5.50;4.75;;;18.90;77.60;;;;;;5037193;28;20037;-51
2023/06/13 08:33:01;;;;;;;6.65;5.03;;;18.90;77.50;;;;;;5034071;28;20107;-53
2023/06/13 08:35:28;;;;;;;9.77;5.00;;;18.80;77.50;;;;;;5034383;28;20021;-51
2023/06/13 08:37:53;;;;;;;5.72;4.68;;;18.80;77.90;;;;;;5038572;28;20045;-48
2023/06/13 08:40:19;;;;;;;4.93;4.43;;;18.80;78.10;;;;;;5048144;28;20024;-49
2023/06/13 08:42:46;;;;;;;7.05;4.80;;;18.80;78.40;;;;;;5043838;28;20074;-51
2023/06/13 08:45:13;;;;;;;6.00;5.10;;;18.80;78.20;;;;;;5047116;28;20022;-54
2023/06/13 08:47:40;;;;;;;6.15;4.90;;;18.80;78.20;;;;;;5036574;28;20042;-50
2023/06/13 08:50:10;;;;;;;7.47;5.30;;;18.80;78.20;;;;;;4997575;28;20140;-50
2023/06/13 08:52:41;;;;;;;6.88;5.03;;;18.80;78.20;;;;;;5005317;28;20113;-46
2023/06/13 08:55:11;;;;;;;7.05;5.25;;;18.70;78.10;;;;;;5006678;28;20034;-48
2023/06/13 08:57:39;;;;;;;7.05;5.55;;;18.70;78.30;;;;;;5010243;28;20122;-48
2023/06/13 09:00:09;;;;;;;7.25;5.40;;;18.60;78.30;;;;;;5005484;28;20089;-47
2023/06/13 09:02:36;;;;;;;8.00;5.93;;;18.60;78.40;;;;;;5021172;28;20548;-46
2023/06/13 09:05:03;;;;;;;7.07;5.32;;;18.50;78.50;;;;;;5013184;28;20108;-50
2023/06/13 09:07:30;;;;;;;10.77;6.40;;;18.50;78.50;;;;;;5014623;28;20032;-49
2023/06/13 09:09:58;;;;;;;6.68;5.50;;;18.50;78.60;;;;;;5008463;28;20500;-47
2023/06/13 09:12:25;;;;;;;10.90;6.40;;;18.40;78.90;;;;;;5012705;28;20052;-46
2023/06/13 09:14:52;;;;;;;7.97;5.68;;;18.40;79.00;;;;;;5016720;28;20026;-51
2023/06/13 09:17:18;;;;;;;7.55;5.28;;;18.40;78.90;;;;;;5013706;28;20513;-50
2023/06/13 09:19:44;;;;;;;7.28;5.25;;;18.40;79.30;;;;;;5018331;28;20537;-52
2023/06/13 09:22:10;;;;;;;7.38;5.47;;;18.40;79.30;;;;;;5010257;28;20033;-52
2023/06/13 09:24:36;;;;;;;8.50;5.57;;;18.40;79.40;;;;;;5017157;28;20049;-49
2023/06/13 09:27:03;;;;;;;6.22;5.03;;;18.40;79.40;;;;;;5018424;28;20037;-54
2023/06/13 09:29:36;;;;;;;5.10;4.57;;;18.40;79.40;;;;;;5006815;28;20079;-49
2023/06/13 09:32:03;;;;;;;8.48;5.18;;;18.50;79.60;;;;;;5013951;28;20026;-53
2023/06/13 09:34:29;;;;;;;6.15;5.38;;;18.50;79.80;;;;;;5012002;28;20105;-53
2023/06/13 09:36:56;;;;;;;7.95;5.75;;;18.50;79.60;;;;;;5014078;28;20034;-50
2023/06/13 09:39:27;;;;;;;7.72;6.00;;;18.50;79.60;;;;;;5013340;28;20076;-50
2023/06/13 09:41:57;;;;;;;9.60;5.30;;;18.60;80.00;;;;;;5006556;28;20041;-52
2023/06/13 09:44:24;;;;;;;7.45;5.60;;;18.60;79.80;;;;;;5013994;28;20029;-48
2023/06/13 09:46:50;;;;;;;8.23;5.75;;;18.70;79.60;;;;;;5022419;28;20030;-50
2023/06/13 09:49:17;;;;;;;8.30;5.32;;;18.70;79.50;;;;;;5022637;28;20026;-49
2023/06/13 09:51:44;;;;;;;8.73;5.45;;;18.70;79.50;;;;;;5034115;28;20013;-52
2023/06/13 09:54:10;;;;;;;8.55;5.78;;;18.70;79.50;;;;;;5035129;28;20037;-53
2023/06/13 09:56:36;;;;;;;7.47;5.38;;;18.70;79.40;;;;;;5032154;28;20026;-52
2023/06/13 09:59:02;;;;;;;8.85;5.05;;;18.70;79.30;;;;;;5028068;28;20056;-53
2023/06/13 10:01:34;;;;;;;7.75;4.95;;;18.80;79.10;;;;;;5026858;28;20010;-50
2023/06/13 10:04:01;;;;;;;6.15;5.13;;;18.80;78.90;;;;;;5026039;28;20026;-52
2023/06/13 10:06:27;;;;;;;9.75;5.15;;;18.80;79.40;;;;;;5026081;28;20038;-49
2023/06/13 10:08:53;;;;;;;8.35;5.57;;;18.80;79.20;;;;;;5030236;28;20052;-51
2023/06/13 10:11:25;;;;;;;8.88;4.78;;;18.80;79.30;;;;;;5016664;28;20096;-50
2023/06/13 10:14:12;;;;;;;9.68;5.00;;;18.80;79.10;;;;;;5019248;28;20065;-48
2023/06/13 10:16:43;;;;;;;9.38;5.22;;;18.90;79.10;;;;;;5023942;28;20038;-53
2023/06/13 10:19:13;;;;;;;10.35;4.97;;;18.90;78.90;;;;;;5013010;28;20029;-50
2023/06/13 10:21:39;;;;;;;6.88;4.57;;;18.90;79.10;;;;;;4996942;28;20505;-51
2023/06/13 10:24:06;;;;;;;5.72;3.95;;;18.90;79.20;;;;;;5028434;28;20030;-53
2023/06/13 10:26:42;;;;;;;5.10;4.45;;;19.00;79.20;;;;;;5013605;28;20030;-50
2023/06/13 10:29:27;;;;;;;9.40;5.18;;;19.10;79.10;;;;;;5024172;28;20014;-53
2023/06/13 10:32:22;;;;;;;7.93;4.88;;;19.20;79.00;;;;;;5013025;28;20025;-52
2023/06/13 10:35:12;;;;;;;6.55;5.22;;;19.30;78.40;;;;;;5015770;28;21336;-52
2023/06/13 10:38:07;;;;;;;6.35;4.55;;;19.40;78.20;;;;;;5024229;28;20064;-54
2023/06/13 10:40:47;;;;;;;5.65;4.20;;;19.50;78.10;;;;;;5023813;28;21483;-53
2023/06/13 10:43:23;;;;;;;10.02;4.40;;;19.60;77.90;;;;;;5028774;28;20041;-52
2023/06/13 10:45:51;;;;;;;5.00;4.10;;;19.70;77.70;;;;;;5022580;28;20049;-55
2023/06/13 10:48:51;;;;;;;5.75;4.53;;;19.80;77.50;;;;;;5014681;28;20037;-54
2023/06/13 10:51:26;;;;;;;6.20;4.50;;;19.90;77.10;;;;;;5020605;28;20056;-54
2023/06/13 10:54:09;;;;;;;6.75;4.47;;;19.90;77.00;;;;;;5030448;28;20082;-53
2023/06/13 10:56:39;;;;;;;5.43;4.60;;;20.00;76.80;;;;;;5016062;28;20489;-49
2023/06/13 10:59:07;;;;;;;6.93;4.63;;;20.00;76.50;;;;;;5026563;28;20083;-53
2023/06/13 11:01:34;;;;;;;6.75;4.90;;;20.10;76.40;;;;;;5024861;28;20033;-51
2023/06/13 11:04:07;;;;;;;9.23;5.25;;;20.10;76.20;;;;;;5015721;28;20024;-52
2023/06/13 11:06:33;;;;;;;6.88;4.75;;;20.20;76.40;;;;;;5022614;28;20030;-52
2023/06/13 11:09:20;;;;;;;8.85;5.25;;;20.30;76.30;;;;;;5023166;28;20034;-48
2023/06/13 11:11:49;;;;;;;6.90;5.30;;;20.30;76.30;;;;;;5016843;28;20033;-52
2023/06/13 11:14:19;;;;;;;5.75;4.65;;;20.40;75.90;;;;;;5019140;28;20037;-54
2023/06/13 11:16:45;;;;;;;6.82;5.20;;;20.40;75.60;;;;;;5025196;28;20112;-54
2023/06/13 11:19:26;;;;;;;8.23;5.32;;;20.50;75.50;;;;;;5018107;28;20054;-51
2023/06/13 11:22:15;;;;;;;8.02;5.18;;;20.50;75.40;;;;;;5021081;28;20022;-49
2023/06/13 11:24:42;;;;;;;7.43;5.00;;;20.60;75.40;;;;;;5020959;28;20100;-49
2023/06/13 11:27:10;;;;;;;6.90;4.55;;;20.70;75.50;;;;;;5021775;28;20030;-54
2023/06/13 11:29:37;;;;;;;5.68;4.47;;;20.70;75.00;;;;;;5018263;28;20091;-55
2023/06/13 11:32:08;;;;;;;7.78;5.00;;;20.80;74.70;;;;;;5015634;28;20041;-51
2023/06/13 11:34:39;;;;;;;7.82;4.75;;;20.90;74.40;;;;;;5016380;28;20472;-52
2023/06/13 11:37:12;;;;;;;7.85;4.90;;;20.90;73.90;;;;;;5019850;28;20080;-52
2023/06/13 11:39:41;;;;;;;8.80;4.88;;;20.90;73.90;;;;;;5019884;28;20028;-54
2023/06/13 11:42:08;;;;;;;6.78;4.85;;;20.90;74.30;;;;;;5014581;28;20048;-51
2023/06/13 11:44:37;;;;;;;6.32;4.63;;;20.90;74.30;;;;;;5019766;28;20018;-54
2023/06/13 11:47:02;;;;;;;6.63;4.40;;;20.90;74.20;;;;;;5022367;28;20124;-52
2023/06/13 11:49:28;;;;;;;6.40;4.22;;;21.00;74.20;;;;;;5020640;28;20033;-54
2023/06/13 11:51:54;;;;;;;8.23;4.85;;;21.00;73.90;;;;;;5019829;28;20034;-49
2023/06/13 11:54:30;;;;;;;7.13;4.53;;;21.00;73.60;;;;;;5017835;28;20086;-51
2023/06/13 11:56:56;;;;;;;10.90;5.20;;;21.10;73.70;;;;;;5014185;28;20027;-53
2023/06/13 11:59:23;;;;;;;7.82;4.75;;;21.10;73.50;;;;;;5022452;28;20087;-55
2023/06/13 12:01:52;;;;;;;6.75;5.07;;;21.10;73.30;;;;;;5025413;28;20023;-53
2023/06/13 12:04:26;;;;;;;11.25;5.75;;;21.10;73.10;;;;;;5023974;28;20105;-53
2023/06/13 12:06:52;;;;;;;8.18;4.45;;;21.10;73.00;;;;;;5023807;28;20038;-51
2023/06/13 12:09:19;;;;;;;6.97;4.80;;;21.20;73.10;;;;;;5025324;28;20037;-52
2023/06/13 12:11:45;;;;;;;5.82;4.80;;;21.20;73.10;;;;;;5026689;28;20041;-53
2023/06/13 12:14:11;;;;;;;6.75;4.78;;;21.20;73.00;;;;;;5022042;28;20057;-52
2023/06/13 12:16:38;;;;;;;6.07;5.20;;;21.20;72.80;;;;;;5028724;28;20033;-52
2023/06/13 12:19:04;;;;;;;5.47;4.57;;;21.20;72.70;;;;;;5032528;28;20029;-53
2023/06/13 12:21:35;;;;;;;5.80;4.55;;;21.20;72.70;;;;;;5027786;28;20045;-54
2023/06/13 12:24:06;;;;;;;9.63;4.97;;;21.20;72.70;;;;;;5038228;28;20016;-51
2023/06/13 12:26:33;;;;;;;6.40;4.75;;;21.20;73.00;;;;;;5030465;28;20078;-54
2023/06/13 12:29:02;;;;;;;7.40;4.72;;;21.20;72.80;;;;;;5030376;28;20097;-51
2023/06/13 12:31:34;;;;;;;5.75;4.78;;;21.20;72.70;;;;;;5029380;28;20068;-52
2023/06/13 12:34:16;;;;;;;8.90;4.90;;;21.20;72.70;;;;;;5019889;28;20053;-54
2023/06/13 12:36:46;;;;;;;7.88;4.50;;;21.20;72.90;;;;;;5023527;28;21087;-54
2023/06/13 12:39:17;;;;;;;6.80;5.43;;;21.20;72.90;;;;;;5029178;28;20065;-51
2023/06/13 12:41:50;;;;;;;7.88;5.03;;;21.10;72.90;;;;;;5023278;28;20022;-52
2023/06/13 12:44:17;;;;;;;6.03;4.70;;;21.10;73.10;;;;;;5021300;28;20030;-49
2023/06/13 12:46:45;;;;;;;8.93;5.53;;;21.20;73.30;;;;;;5030076;28;20026;-52
2023/06/13 12:49:15;;;;;;;7.70;5.10;;;21.20;73.00;;;;;;5017053;28;20029;-52